sensor_id;sensor_type;location;lat;lon;timestamp;P1;durP1;ratioP1;P2;durP2;ratioP2
55186;SDS011;55457;52.002;5.464;2023-10-19T00:00:18;8.07;;;2.38;;
55186;SDS011;55457;52.002;5.464;2023-10-19T00:02:45;9.30;;;2.63;;
55186;SDS011;55457;52.002;5.464;2023-10-19T00:05:16;8.10;;;2.78;;
55186;SDS011;55457;52.002;5.464;2023-10-19T00:07:42;8.48;;;2.50;;
55186;SDS011;55457;52.002;5.464;2023-10-19T00:10:07;12.18;;;2.30;;
55186;SDS011;55457;52.002;5.464;2023-10-19T00:12:34;9.80;;;2.45;;
55186;SDS011;55457;52.002;5.464;2023-10-19T00:14:59;14.23;;;3.00;;
55186;SDS011;55457;52.002;5.464;2023-10-19T00:17:25;5.05;;;2.63;;
55186;SDS011;55457;52.002;5.464;2023-10-19T00:19:52;9.02;;;2.60;;
55186;SDS011;55457;52.002;5.464;2023-10-19T00:22:43;5.25;;;1.98;;
55186;SDS011;55457;52.002;5.464;2023-10-19T00:25:09;6.07;;;2.22;;
55186;SDS011;55457;52.002;5.464;2023-10-19T00:27:38;3.92;;;2.28;;
55186;SDS011;55457;52.002;5.464;2023-10-19T00:30:07;9.00;;;3.35;;
55186;SDS011;55457;52.002;5.464;2023-10-19T00:32:33;7.90;;;2.70;;
55186;SDS011;55457;52.002;5.464;2023-10-19T00:35:03;6.15;;;2.10;;
55186;SDS011;55457;52.002;5.464;2023-10-19T00:37:35;7.95;;;2.70;;
55186;SDS011;55457;52.002;5.464;2023-10-19T00:40:07;5.45;;;2.30;;
55186;SDS011;55457;52.002;5.464;2023-10-19T00:42:56;9.38;;;2.30;;
55186;SDS011;55457;52.002;5.464;2023-10-19T00:45:21;5.03;;;2.00;;
55186;SDS011;55457;52.002;5.464;2023-10-19T00:47:51;4.70;;;2.00;;
55186;SDS011;55457;52.002;5.464;2023-10-19T00:50:18;4.88;;;2.38;;
55186;SDS011;55457;52.002;5.464;2023-10-19T00:52:47;5.25;;;2.90;;
55186;SDS011;55457;52.002;5.464;2023-10-19T00:55:16;5.43;;;2.15;;
55186;SDS011;55457;52.002;5.464;2023-10-19T00:57:46;5.38;;;2.10;;
55186;SDS011;55457;52.002;5.464;2023-10-19T01:00:15;6.43;;;2.85;;
55186;SDS011;55457;52.002;5.464;2023-10-19T01:02:54;7.20;;;2.88;;
55186;SDS011;55457;52.002;5.464;2023-10-19T01:05:24;2.83;;;1.60;;
55186;SDS011;55457;52.002;5.464;2023-10-19T01:07:57;6.65;;;2.13;;
55186;SDS011;55457;52.002;5.464;2023-10-19T01:10:22;5.05;;;2.10;;
55186;SDS011;55457;52.002;5.464;2023-10-19T01:12:48;5.63;;;2.03;;
55186;SDS011;55457;52.002;5.464;2023-10-19T01:15:18;5.20;;;2.08;;
55186;SDS011;55457;52.002;5.464;2023-10-19T01:17:53;3.13;;;1.80;;
55186;SDS011;55457;52.002;5.464;2023-10-19T01:20:23;5.90;;;2.53;;
55186;SDS011;55457;52.002;5.464;2023-10-19T01:22:55;5.05;;;2.10;;
55186;SDS011;55457;52.002;5.464;2023-10-19T01:25:43;4.68;;;2.78;;
55186;SDS011;55457;52.002;5.464;2023-10-19T01:28:19;6.97;;;2.28;;
55186;SDS011;55457;52.002;5.464;2023-10-19T01:30:45;4.90;;;2.28;;
55186;SDS011;55457;52.002;5.464;2023-10-19T01:33:11;4.40;;;2.13;;
55186;SDS011;55457;52.002;5.464;2023-10-19T01:35:46;3.88;;;2.33;;
55186;SDS011;55457;52.002;5.464;2023-10-19T01:38:30;4.40;;;2.00;;
55186;SDS011;55457;52.002;5.464;2023-10-19T01:40:57;7.65;;;1.95;;
55186;SDS011;55457;52.002;5.464;2023-10-19T01:43:26;6.25;;;1.85;;
55186;SDS011;55457;52.002;5.464;2023-10-19T01:45:56;4.82;;;2.00;;
55186;SDS011;55457;52.002;5.464;2023-10-19T01:48:22;5.63;;;1.92;;
55186;SDS011;55457;52.002;5.464;2023-10-19T01:50:57;5.53;;;2.28;;
55186;SDS011;55457;52.002;5.464;2023-10-19T01:53:22;7.03;;;2.30;;
55186;SDS011;55457;52.002;5.464;2023-10-19T01:55:50;8.32;;;2.20;;
55186;SDS011;55457;52.002;5.464;2023-10-19T02:00:49;3.17;;;2.35;;
55186;SDS011;55457;52.002;5.464;2023-10-19T02:03:15;5.25;;;1.70;;
55186;SDS011;55457;52.002;5.464;2023-10-19T02:05:41;5.43;;;1.92;;
55186;SDS011;55457;52.002;5.464;2023-10-19T02:08:07;2.58;;;1.90;;
55186;SDS011;55457;52.002;5.464;2023-10-19T02:10:33;3.47;;;1.85;;
55186;SDS011;55457;52.002;5.464;2023-10-19T02:13:00;7.20;;;3.10;;
55186;SDS011;55457;52.002;5.464;2023-10-19T02:15:31;4.25;;;2.30;;
55186;SDS011;55457;52.002;5.464;2023-10-19T02:17:59;3.72;;;1.98;;
55186;SDS011;55457;52.002;5.464;2023-10-19T02:20:26;2.13;;;1.65;;
55186;SDS011;55457;52.002;5.464;2023-10-19T02:22:52;5.18;;;2.05;;
55186;SDS011;55457;52.002;5.464;2023-10-19T02:25:17;4.05;;;1.90;;
55186;SDS011;55457;52.002;5.464;2023-10-19T02:27:44;4.22;;;2.05;;
55186;SDS011;55457;52.002;5.464;2023-10-19T02:30:10;6.97;;;2.58;;
55186;SDS011;55457;52.002;5.464;2023-10-19T02:32:36;4.05;;;1.70;;
55186;SDS011;55457;52.002;5.464;2023-10-19T02:35:02;4.75;;;2.30;;
55186;SDS011;55457;52.002;5.464;2023-10-19T02:37:28;4.68;;;2.20;;
55186;SDS011;55457;52.002;5.464;2023-10-19T02:39:53;5.72;;;2.38;;
55186;SDS011;55457;52.002;5.464;2023-10-19T02:42:18;5.07;;;2.20;;
55186;SDS011;55457;52.002;5.464;2023-10-19T02:44:47;4.68;;;1.75;;
55186;SDS011;55457;52.002;5.464;2023-10-19T02:47:15;3.65;;;2.13;;
55186;SDS011;55457;52.002;5.464;2023-10-19T02:49:42;4.20;;;2.10;;
55186;SDS011;55457;52.002;5.464;2023-10-19T02:52:15;4.43;;;1.73;;
55186;SDS011;55457;52.002;5.464;2023-10-19T02:54:41;4.75;;;1.92;;
55186;SDS011;55457;52.002;5.464;2023-10-19T02:57:06;6.40;;;1.90;;
55186;SDS011;55457;52.002;5.464;2023-10-19T02:59:32;5.10;;;1.80;;
55186;SDS011;55457;52.002;5.464;2023-10-19T03:01:58;4.75;;;2.38;;
55186;SDS011;55457;52.002;5.464;2023-10-19T03:04:37;7.22;;;1.75;;
55186;SDS011;55457;52.002;5.464;2023-10-19T03:07:03;3.50;;;2.28;;
55186;SDS011;55457;52.002;5.464;2023-10-19T03:09:29;4.82;;;1.95;;
55186;SDS011;55457;52.002;5.464;2023-10-19T03:11:55;7.55;;;2.58;;
55186;SDS011;55457;52.002;5.464;2023-10-19T03:14:25;3.33;;;1.70;;
55186;SDS011;55457;52.002;5.464;2023-10-19T03:16:53;9.25;;;2.20;;
55186;SDS011;55457;52.002;5.464;2023-10-19T03:19:20;6.05;;;2.92;;
55186;SDS011;55457;52.002;5.464;2023-10-19T03:21:46;4.03;;;1.83;;
55186;SDS011;55457;52.002;5.464;2023-10-19T03:24:14;7.70;;;1.98;;
55186;SDS011;55457;52.002;5.464;2023-10-19T03:26:48;9.55;;;3.05;;
55186;SDS011;55457;52.002;5.464;2023-10-19T03:29:15;6.57;;;2.08;;
55186;SDS011;55457;52.002;5.464;2023-10-19T03:31:46;2.60;;;2.40;;
55186;SDS011;55457;52.002;5.464;2023-10-19T03:34:12;9.13;;;2.05;;
55186;SDS011;55457;52.002;5.464;2023-10-19T03:36:39;3.00;;;2.38;;
55186;SDS011;55457;52.002;5.464;2023-10-19T03:39:05;3.80;;;1.85;;
55186;SDS011;55457;52.002;5.464;2023-10-19T03:41:38;3.72;;;1.92;;
55186;SDS011;55457;52.002;5.464;2023-10-19T03:44:07;3.72;;;1.80;;
55186;SDS011;55457;52.002;5.464;2023-10-19T03:46:39;3.60;;;2.13;;
55186;SDS011;55457;52.002;5.464;2023-10-19T03:49:17;4.85;;;1.83;;
55186;SDS011;55457;52.002;5.464;2023-10-19T03:51:44;5.13;;;1.92;;
55186;SDS011;55457;52.002;5.464;2023-10-19T03:54:28;4.45;;;1.77;;
55186;SDS011;55457;52.002;5.464;2023-10-19T03:56:54;3.25;;;1.63;;
55186;SDS011;55457;52.002;5.464;2023-10-19T03:59:27;2.70;;;1.88;;
55186;SDS011;55457;52.002;5.464;2023-10-19T04:01:58;4.35;;;1.92;;
55186;SDS011;55457;52.002;5.464;2023-10-19T04:04:25;5.05;;;1.50;;
55186;SDS011;55457;52.002;5.464;2023-10-19T04:06:50;5.30;;;2.15;;
55186;SDS011;55457;52.002;5.464;2023-10-19T04:09:22;3.70;;;1.88;;
55186;SDS011;55457;52.002;5.464;2023-10-19T04:11:48;4.85;;;2.30;;
55186;SDS011;55457;52.002;5.464;2023-10-19T04:14:14;6.63;;;2.10;;
55186;SDS011;55457;52.002;5.464;2023-10-19T04:16:40;7.32;;;2.50;;
55186;SDS011;55457;52.002;5.464;2023-10-19T04:19:08;3.30;;;1.90;;
55186;SDS011;55457;52.002;5.464;2023-10-19T04:21:35;3.10;;;1.65;;
55186;SDS011;55457;52.002;5.464;2023-10-19T04:24:04;2.50;;;1.45;;
55186;SDS011;55457;52.002;5.464;2023-10-19T04:26:32;3.25;;;1.70;;
55186;SDS011;55457;52.002;5.464;2023-10-19T04:29:02;6.13;;;2.40;;
55186;SDS011;55457;52.002;5.464;2023-10-19T04:31:34;5.55;;;1.92;;
55186;SDS011;55457;52.002;5.464;2023-10-19T04:34:02;2.53;;;1.83;;
55186;SDS011;55457;52.002;5.464;2023-10-19T04:36:32;4.35;;;1.42;;
55186;SDS011;55457;52.002;5.464;2023-10-19T04:38:58;2.50;;;1.48;;
55186;SDS011;55457;52.002;5.464;2023-10-19T04:41:25;6.95;;;1.80;;
55186;SDS011;55457;52.002;5.464;2023-10-19T04:43:52;4.70;;;1.63;;
55186;SDS011;55457;52.002;5.464;2023-10-19T04:46:19;3.47;;;1.67;;
55186;SDS011;55457;52.002;5.464;2023-10-19T04:48:45;2.70;;;1.50;;
55186;SDS011;55457;52.002;5.464;2023-10-19T04:51:10;4.28;;;1.45;;
55186;SDS011;55457;52.002;5.464;2023-10-19T04:53:36;5.15;;;1.45;;
55186;SDS011;55457;52.002;5.464;2023-10-19T04:56:02;3.45;;;1.30;;
55186;SDS011;55457;52.002;5.464;2023-10-19T04:58:29;3.15;;;1.70;;
55186;SDS011;55457;52.002;5.464;2023-10-19T05:00:55;4.40;;;2.03;;
55186;SDS011;55457;52.002;5.464;2023-10-19T05:03:23;7.10;;;1.58;;
55186;SDS011;55457;52.002;5.464;2023-10-19T05:05:49;1.65;;;1.40;;
55186;SDS011;55457;52.002;5.464;2023-10-19T05:08:14;8.63;;;2.15;;
55186;SDS011;55457;52.002;5.464;2023-10-19T05:10:40;5.38;;;1.75;;
55186;SDS011;55457;52.002;5.464;2023-10-19T05:13:07;5.40;;;1.85;;
55186;SDS011;55457;52.002;5.464;2023-10-19T05:15:32;5.45;;;1.63;;
55186;SDS011;55457;52.002;5.464;2023-10-19T05:17:59;4.70;;;1.92;;
55186;SDS011;55457;52.002;5.464;2023-10-19T05:20:24;7.30;;;1.40;;
55186;SDS011;55457;52.002;5.464;2023-10-19T05:22:50;8.95;;;2.00;;
55186;SDS011;55457;52.002;5.464;2023-10-19T05:25:16;4.20;;;1.50;;
55186;SDS011;55457;52.002;5.464;2023-10-19T05:27:41;4.38;;;1.30;;
55186;SDS011;55457;52.002;5.464;2023-10-19T05:30:07;6.78;;;2.65;;
55186;SDS011;55457;52.002;5.464;2023-10-19T05:32:36;2.72;;;1.30;;
55186;SDS011;55457;52.002;5.464;2023-10-19T05:35:01;6.85;;;2.20;;
55186;SDS011;55457;52.002;5.464;2023-10-19T05:37:29;2.58;;;1.40;;
55186;SDS011;55457;52.002;5.464;2023-10-19T05:39:55;4.13;;;1.38;;
55186;SDS011;55457;52.002;5.464;2023-10-19T05:42:20;5.63;;;1.20;;
55186;SDS011;55457;52.002;5.464;2023-10-19T05:44:47;4.30;;;1.77;;
55186;SDS011;55457;52.002;5.464;2023-10-19T05:47:12;4.53;;;1.52;;
55186;SDS011;55457;52.002;5.464;2023-10-19T05:49:37;5.45;;;1.60;;
55186;SDS011;55457;52.002;5.464;2023-10-19T05:52:03;4.30;;;1.35;;
55186;SDS011;55457;52.002;5.464;2023-10-19T05:54:28;7.32;;;2.03;;
55186;SDS011;55457;52.002;5.464;2023-10-19T05:56:54;3.70;;;1.20;;
55186;SDS011;55457;52.002;5.464;2023-10-19T05:59:19;6.20;;;1.73;;
55186;SDS011;55457;52.002;5.464;2023-10-19T06:01:44;4.45;;;2.03;;
55186;SDS011;55457;52.002;5.464;2023-10-19T06:04:13;6.22;;;1.42;;
55186;SDS011;55457;52.002;5.464;2023-10-19T06:06:38;6.55;;;1.50;;
55186;SDS011;55457;52.002;5.464;2023-10-19T06:09:07;3.55;;;1.48;;
55186;SDS011;55457;52.002;5.464;2023-10-19T06:11:34;2.50;;;1.60;;
55186;SDS011;55457;52.002;5.464;2023-10-19T06:14:02;2.70;;;1.52;;
55186;SDS011;55457;52.002;5.464;2023-10-19T06:16:31;3.83;;;1.55;;
55186;SDS011;55457;52.002;5.464;2023-10-19T06:18:57;3.00;;;1.35;;
55186;SDS011;55457;52.002;5.464;2023-10-19T06:21:23;3.42;;;1.10;;
55186;SDS011;55457;52.002;5.464;2023-10-19T06:23:48;3.92;;;1.23;;
55186;SDS011;55457;52.002;5.464;2023-10-19T06:26:15;3.33;;;1.50;;
55186;SDS011;55457;52.002;5.464;2023-10-19T06:28:40;8.00;;;1.40;;
55186;SDS011;55457;52.002;5.464;2023-10-19T06:31:06;5.20;;;1.50;;
55186;SDS011;55457;52.002;5.464;2023-10-19T06:33:32;1.90;;;1.45;;
55186;SDS011;55457;52.002;5.464;2023-10-19T06:36:01;10.38;;;2.17;;
55186;SDS011;55457;52.002;5.464;2023-10-19T06:38:28;3.00;;;2.03;;
55186;SDS011;55457;52.002;5.464;2023-10-19T06:40:54;9.25;;;1.50;;
55186;SDS011;55457;52.002;5.464;2023-10-19T06:43:20;4.80;;;1.38;;
55186;SDS011;55457;52.002;5.464;2023-10-19T06:45:48;2.97;;;1.50;;
55186;SDS011;55457;52.002;5.464;2023-10-19T06:48:14;5.28;;;1.73;;
55186;SDS011;55457;52.002;5.464;2023-10-19T06:50:40;6.53;;;1.70;;
55186;SDS011;55457;52.002;5.464;2023-10-19T06:53:05;6.22;;;1.55;;
55186;SDS011;55457;52.002;5.464;2023-10-19T06:55:31;9.00;;;1.83;;
55186;SDS011;55457;52.002;5.464;2023-10-19T06:57:56;6.35;;;1.33;;
55186;SDS011;55457;52.002;5.464;2023-10-19T07:00:23;5.90;;;1.73;;
55186;SDS011;55457;52.002;5.464;2023-10-19T07:02:53;7.22;;;1.20;;
55186;SDS011;55457;52.002;5.464;2023-10-19T07:05:21;2.55;;;1.50;;
55186;SDS011;55457;52.002;5.464;2023-10-19T07:07:47;5.10;;;1.65;;
55186;SDS011;55457;52.002;5.464;2023-10-19T07:10:14;4.18;;;1.45;;
55186;SDS011;55457;52.002;5.464;2023-10-19T07:12:44;2.03;;;1.13;;
55186;SDS011;55457;52.002;5.464;2023-10-19T07:15:11;4.07;;;1.67;;
55186;SDS011;55457;52.002;5.464;2023-10-19T07:17:40;3.40;;;1.70;;
55186;SDS011;55457;52.002;5.464;2023-10-19T07:20:07;4.95;;;1.80;;
55186;SDS011;55457;52.002;5.464;2023-10-19T07:22:35;2.53;;;1.05;;
55186;SDS011;55457;52.002;5.464;2023-10-19T07:25:04;4.78;;;1.45;;
55186;SDS011;55457;52.002;5.464;2023-10-19T07:27:31;2.33;;;1.13;;
55186;SDS011;55457;52.002;5.464;2023-10-19T07:29:58;5.90;;;1.98;;
55186;SDS011;55457;52.002;5.464;2023-10-19T07:32:24;6.88;;;2.10;;
55186;SDS011;55457;52.002;5.464;2023-10-19T07:34:49;8.43;;;1.63;;
55186;SDS011;55457;52.002;5.464;2023-10-19T07:37:14;10.05;;;1.92;;
55186;SDS011;55457;52.002;5.464;2023-10-19T07:39:46;11.02;;;1.70;;
55186;SDS011;55457;52.002;5.464;2023-10-19T07:44:37;15.02;;;2.03;;
55186;SDS011;55457;52.002;5.464;2023-10-19T07:47:03;5.50;;;1.40;;
55186;SDS011;55457;52.002;5.464;2023-10-19T07:49:28;6.72;;;3.03;;
55186;SDS011;55457;52.002;5.464;2023-10-19T07:51:54;11.05;;;2.00;;
55186;SDS011;55457;52.002;5.464;2023-10-19T07:54:20;9.00;;;1.67;;
55186;SDS011;55457;52.002;5.464;2023-10-19T07:56:46;11.48;;;2.13;;
55186;SDS011;55457;52.002;5.464;2023-10-19T07:59:12;16.15;;;2.95;;
55186;SDS011;55457;52.002;5.464;2023-10-19T08:01:37;7.72;;;2.05;;
55186;SDS011;55457;52.002;5.464;2023-10-19T08:04:03;8.00;;;1.58;;
55186;SDS011;55457;52.002;5.464;2023-10-19T08:06:29;6.43;;;1.80;;
55186;SDS011;55457;52.002;5.464;2023-10-19T08:08:56;6.43;;;1.58;;
55186;SDS011;55457;52.002;5.464;2023-10-19T08:11:21;8.40;;;1.75;;
55186;SDS011;55457;52.002;5.464;2023-10-19T08:13:46;6.65;;;1.40;;
55186;SDS011;55457;52.002;5.464;2023-10-19T08:16:12;9.60;;;1.73;;
55186;SDS011;55457;52.002;5.464;2023-10-19T08:18:37;5.90;;;1.58;;
55186;SDS011;55457;52.002;5.464;2023-10-19T08:21:04;7.55;;;2.17;;
55186;SDS011;55457;52.002;5.464;2023-10-19T08:23:29;4.80;;;1.50;;
55186;SDS011;55457;52.002;5.464;2023-10-19T08:25:56;4.60;;;1.33;;
55186;SDS011;55457;52.002;5.464;2023-10-19T08:28:22;6.32;;;1.40;;
55186;SDS011;55457;52.002;5.464;2023-10-19T08:30:47;10.60;;;2.13;;
55186;SDS011;55457;52.002;5.464;2023-10-19T08:33:25;6.57;;;1.40;;
55186;SDS011;55457;52.002;5.464;2023-10-19T08:35:54;6.18;;;1.40;;
55186;SDS011;55457;52.002;5.464;2023-10-19T08:38:20;6.93;;;1.77;;
55186;SDS011;55457;52.002;5.464;2023-10-19T08:40:46;5.55;;;2.10;;
55186;SDS011;55457;52.002;5.464;2023-10-19T08:43:13;6.07;;;2.28;;
55186;SDS011;55457;52.002;5.464;2023-10-19T08:45:39;4.05;;;1.60;;
55186;SDS011;55457;52.002;5.464;2023-10-19T08:48:04;7.20;;;1.50;;
55186;SDS011;55457;52.002;5.464;2023-10-19T08:50:30;12.95;;;2.58;;
55186;SDS011;55457;52.002;5.464;2023-10-19T08:52:57;4.13;;;1.40;;
55186;SDS011;55457;52.002;5.464;2023-10-19T08:55:24;3.78;;;1.90;;
55186;SDS011;55457;52.002;5.464;2023-10-19T08:57:50;6.55;;;1.55;;
55186;SDS011;55457;52.002;5.464;2023-10-19T09:00:16;4.22;;;1.20;;
55186;SDS011;55457;52.002;5.464;2023-10-19T09:02:46;4.43;;;1.48;;
55186;SDS011;55457;52.002;5.464;2023-10-19T09:05:11;4.90;;;2.28;;
55186;SDS011;55457;52.002;5.464;2023-10-19T09:07:51;10.52;;;1.70;;
55186;SDS011;55457;52.002;5.464;2023-10-19T09:10:22;12.07;;;2.30;;
55186;SDS011;55457;52.002;5.464;2023-10-19T09:12:58;6.40;;;1.27;;
55186;SDS011;55457;52.002;5.464;2023-10-19T09:15:28;7.13;;;2.20;;
55186;SDS011;55457;52.002;5.464;2023-10-19T09:18:17;5.20;;;1.60;;
55186;SDS011;55457;52.002;5.464;2023-10-19T09:20:45;6.18;;;1.63;;
55186;SDS011;55457;52.002;5.464;2023-10-19T09:23:25;4.97;;;1.48;;
55186;SDS011;55457;52.002;5.464;2023-10-19T09:25:56;4.68;;;1.98;;
55186;SDS011;55457;52.002;5.464;2023-10-19T09:28:22;3.35;;;1.42;;
55186;SDS011;55457;52.002;5.464;2023-10-19T09:30:49;6.07;;;1.48;;
55186;SDS011;55457;52.002;5.464;2023-10-19T09:33:15;3.47;;;1.33;;
55186;SDS011;55457;52.002;5.464;2023-10-19T09:35:43;5.82;;;1.77;;
55186;SDS011;55457;52.002;5.464;2023-10-19T09:38:13;1.60;;;1.00;;
55186;SDS011;55457;52.002;5.464;2023-10-19T09:40:39;2.17;;;1.08;;
55186;SDS011;55457;52.002;5.464;2023-10-19T09:43:07;2.15;;;1.40;;
55186;SDS011;55457;52.002;5.464;2023-10-19T09:45:40;3.35;;;1.38;;
55186;SDS011;55457;52.002;5.464;2023-10-19T09:48:07;4.03;;;1.27;;
55186;SDS011;55457;52.002;5.464;2023-10-19T09:50:33;6.38;;;1.10;;
55186;SDS011;55457;52.002;5.464;2023-10-19T09:52:59;4.35;;;1.17;;
55186;SDS011;55457;52.002;5.464;2023-10-19T09:55:29;4.47;;;1.13;;
55186;SDS011;55457;52.002;5.464;2023-10-19T09:58:02;3.42;;;1.30;;
55186;SDS011;55457;52.002;5.464;2023-10-19T10:00:32;3.92;;;1.48;;
55186;SDS011;55457;52.002;5.464;2023-10-19T10:02:59;3.67;;;1.25;;
55186;SDS011;55457;52.002;5.464;2023-10-19T10:10:51;2.97;;;1.23;;
55186;SDS011;55457;52.002;5.464;2023-10-19T10:16:00;4.07;;;1.08;;
55186;SDS011;55457;52.002;5.464;2023-10-19T10:18:29;2.85;;;1.20;;
55186;SDS011;55457;52.002;5.464;2023-10-19T10:21:06;5.40;;;1.10;;
55186;SDS011;55457;52.002;5.464;2023-10-19T10:23:59;3.50;;;1.45;;
55186;SDS011;55457;52.002;5.464;2023-10-19T10:26:25;2.85;;;1.40;;
55186;SDS011;55457;52.002;5.464;2023-10-19T10:29:07;4.15;;;1.08;;
55186;SDS011;55457;52.002;5.464;2023-10-19T10:31:44;3.63;;;1.23;;
55186;SDS011;55457;52.002;5.464;2023-10-19T10:34:11;3.38;;;1.50;;
55186;SDS011;55457;52.002;5.464;2023-10-19T10:36:57;7.90;;;1.50;;
55186;SDS011;55457;52.002;5.464;2023-10-19T10:39:25;3.97;;;1.30;;
55186;SDS011;55457;52.002;5.464;2023-10-19T10:41:58;6.00;;;1.27;;
55186;SDS011;55457;52.002;5.464;2023-10-19T10:47:06;1.98;;;1.10;;
55186;SDS011;55457;52.002;5.464;2023-10-19T10:49:59;6.40;;;1.30;;
55186;SDS011;55457;52.002;5.464;2023-10-19T10:52:36;5.32;;;1.10;;
55186;SDS011;55457;52.002;5.464;2023-10-19T10:55:09;3.20;;;1.40;;
55186;SDS011;55457;52.002;5.464;2023-10-19T10:57:38;3.30;;;1.25;;
55186;SDS011;55457;52.002;5.464;2023-10-19T11:00:08;3.17;;;1.52;;
55186;SDS011;55457;52.002;5.464;2023-10-19T11:02:40;4.40;;;1.52;;
55186;SDS011;55457;52.002;5.464;2023-10-19T11:05:12;2.45;;;1.20;;
55186;SDS011;55457;52.002;5.464;2023-10-19T11:07:39;4.07;;;1.10;;
55186;SDS011;55457;52.002;5.464;2023-10-19T11:10:05;7.10;;;1.30;;
55186;SDS011;55457;52.002;5.464;2023-10-19T11:12:31;5.35;;;1.60;;
55186;SDS011;55457;52.002;5.464;2023-10-19T11:14:57;3.58;;;1.33;;
55186;SDS011;55457;52.002;5.464;2023-10-19T11:17:24;4.97;;;1.27;;
55186;SDS011;55457;52.002;5.464;2023-10-19T11:19:56;5.75;;;1.02;;
55186;SDS011;55457;52.002;5.464;2023-10-19T11:22:22;4.53;;;1.27;;
55186;SDS011;55457;52.002;5.464;2023-10-19T11:24:52;8.30;;;1.27;;
55186;SDS011;55457;52.002;5.464;2023-10-19T11:27:36;4.43;;;1.35;;
55186;SDS011;55457;52.002;5.464;2023-10-19T11:30:03;4.60;;;1.38;;
55186;SDS011;55457;52.002;5.464;2023-10-19T11:32:35;4.20;;;1.35;;
55186;SDS011;55457;52.002;5.464;2023-10-19T11:35:05;4.60;;;1.60;;
55186;SDS011;55457;52.002;5.464;2023-10-19T11:37:47;5.57;;;1.23;;
55186;SDS011;55457;52.002;5.464;2023-10-19T11:40:17;5.07;;;1.45;;
55186;SDS011;55457;52.002;5.464;2023-10-19T11:42:44;3.88;;;1.13;;
55186;SDS011;55457;52.002;5.464;2023-10-19T11:45:09;3.92;;;1.13;;
55186;SDS011;55457;52.002;5.464;2023-10-19T11:47:36;2.17;;;1.02;;
55186;SDS011;55457;52.002;5.464;2023-10-19T11:50:02;4.57;;;0.93;;
55186;SDS011;55457;52.002;5.464;2023-10-19T11:52:28;3.15;;;1.67;;
55186;SDS011;55457;52.002;5.464;2023-10-19T11:54:54;5.93;;;1.50;;
55186;SDS011;55457;52.002;5.464;2023-10-19T11:57:20;5.57;;;1.35;;
55186;SDS011;55457;52.002;5.464;2023-10-19T11:59:45;4.35;;;1.30;;
55186;SDS011;55457;52.002;5.464;2023-10-19T12:02:10;5.07;;;1.75;;
55186;SDS011;55457;52.002;5.464;2023-10-19T12:04:36;4.43;;;1.45;;
55186;SDS011;55457;52.002;5.464;2023-10-19T12:07:02;1.90;;;1.10;;
55186;SDS011;55457;52.002;5.464;2023-10-19T12:09:28;3.15;;;1.05;;
55186;SDS011;55457;52.002;5.464;2023-10-19T12:11:55;1.70;;;0.90;;
55186;SDS011;55457;52.002;5.464;2023-10-19T12:14:20;3.20;;;1.20;;
55186;SDS011;55457;52.002;5.464;2023-10-19T12:16:46;4.63;;;1.00;;
55186;SDS011;55457;52.002;5.464;2023-10-19T12:19:12;4.03;;;1.23;;
55186;SDS011;55457;52.002;5.464;2023-10-19T12:21:39;4.65;;;2.25;;
55186;SDS011;55457;52.002;5.464;2023-10-19T12:24:06;5.03;;;1.67;;
55186;SDS011;55457;52.002;5.464;2023-10-19T12:26:33;3.67;;;0.98;;
55186;SDS011;55457;52.002;5.464;2023-10-19T12:28:58;4.13;;;1.48;;
55186;SDS011;55457;52.002;5.464;2023-10-19T12:31:24;4.53;;;1.27;;
55186;SDS011;55457;52.002;5.464;2023-10-19T12:33:50;6.55;;;1.35;;
55186;SDS011;55457;52.002;5.464;2023-10-19T12:36:15;2.38;;;1.08;;
55186;SDS011;55457;52.002;5.464;2023-10-19T12:38:53;3.50;;;1.60;;
55186;SDS011;55457;52.002;5.464;2023-10-19T12:41:19;2.67;;;0.95;;
55186;SDS011;55457;52.002;5.464;2023-10-19T12:43:46;2.63;;;1.10;;
55186;SDS011;55457;52.002;5.464;2023-10-19T12:46:11;3.88;;;1.30;;
55186;SDS011;55457;52.002;5.464;2023-10-19T12:48:39;4.32;;;1.30;;
55186;SDS011;55457;52.002;5.464;2023-10-19T12:51:07;3.95;;;1.05;;
55186;SDS011;55457;52.002;5.464;2023-10-19T12:53:34;2.22;;;1.00;;
55186;SDS011;55457;52.002;5.464;2023-10-19T12:56:00;4.05;;;1.17;;
55186;SDS011;55457;52.002;5.464;2023-10-19T12:58:25;4.68;;;1.15;;
55186;SDS011;55457;52.002;5.464;2023-10-19T13:00:52;2.17;;;1.08;;
55186;SDS011;55457;52.002;5.464;2023-10-19T13:03:19;3.67;;;1.02;;
55186;SDS011;55457;52.002;5.464;2023-10-19T13:05:45;4.47;;;1.83;;
55186;SDS011;55457;52.002;5.464;2023-10-19T13:08:13;3.30;;;1.52;;
55186;SDS011;55457;52.002;5.464;2023-10-19T13:10:40;2.53;;;1.17;;
55186;SDS011;55457;52.002;5.464;2023-10-19T13:13:07;1.80;;;0.93;;
55186;SDS011;55457;52.002;5.464;2023-10-19T13:15:37;2.28;;;1.20;;
55186;SDS011;55457;52.002;5.464;2023-10-19T13:18:04;1.63;;;1.00;;
55186;SDS011;55457;52.002;5.464;2023-10-19T13:20:31;2.95;;;1.48;;
55186;SDS011;55457;52.002;5.464;2023-10-19T13:23:00;2.67;;;1.15;;
55186;SDS011;55457;52.002;5.464;2023-10-19T13:25:28;3.58;;;1.15;;
55186;SDS011;55457;52.002;5.464;2023-10-19T13:28:12;3.47;;;1.10;;
55186;SDS011;55457;52.002;5.464;2023-10-19T13:30:39;6.97;;;1.30;;
55186;SDS011;55457;52.002;5.464;2023-10-19T13:33:06;2.53;;;0.98;;
55186;SDS011;55457;52.002;5.464;2023-10-19T13:35:35;3.13;;;0.90;;
55186;SDS011;55457;52.002;5.464;2023-10-19T13:38:02;5.57;;;1.50;;
55186;SDS011;55457;52.002;5.464;2023-10-19T13:40:29;3.92;;;1.33;;
55186;SDS011;55457;52.002;5.464;2023-10-19T13:42:57;2.40;;;1.02;;
55186;SDS011;55457;52.002;5.464;2023-10-19T13:45:23;3.15;;;1.08;;
55186;SDS011;55457;52.002;5.464;2023-10-19T13:47:49;6.47;;;1.23;;
55186;SDS011;55457;52.002;5.464;2023-10-19T13:50:14;2.67;;;1.10;;
55186;SDS011;55457;52.002;5.464;2023-10-19T13:52:40;4.43;;;1.73;;
55186;SDS011;55457;52.002;5.464;2023-10-19T13:55:06;1.83;;;1.05;;
55186;SDS011;55457;52.002;5.464;2023-10-19T13:57:32;3.45;;;1.00;;
55186;SDS011;55457;52.002;5.464;2023-10-19T13:59:58;1.90;;;0.98;;
55186;SDS011;55457;52.002;5.464;2023-10-19T14:02:24;2.85;;;1.13;;
55186;SDS011;55457;52.002;5.464;2023-10-19T14:04:50;6.57;;;1.30;;
55186;SDS011;55457;52.002;5.464;2023-10-19T14:07:16;2.70;;;1.15;;
55186;SDS011;55457;52.002;5.464;2023-10-19T14:09:42;3.47;;;1.48;;
55186;SDS011;55457;52.002;5.464;2023-10-19T14:12:07;4.90;;;1.20;;
55186;SDS011;55457;52.002;5.464;2023-10-19T14:14:33;3.03;;;1.08;;
55186;SDS011;55457;52.002;5.464;2023-10-19T14:17:00;6.78;;;1.40;;
55186;SDS011;55457;52.002;5.464;2023-10-19T14:19:26;1.80;;;0.82;;
55186;SDS011;55457;52.002;5.464;2023-10-19T14:21:51;2.97;;;0.77;;
55186;SDS011;55457;52.002;5.464;2023-10-19T14:24:17;2.55;;;0.85;;
55186;SDS011;55457;52.002;5.464;2023-10-19T14:26:45;2.55;;;1.77;;
55186;SDS011;55457;52.002;5.464;2023-10-19T14:29:11;2.45;;;1.13;;
55186;SDS011;55457;52.002;5.464;2023-10-19T14:31:38;2.28;;;0.90;;
55186;SDS011;55457;52.002;5.464;2023-10-19T14:34:04;4.78;;;1.08;;
55186;SDS011;55457;52.002;5.464;2023-10-19T14:36:29;2.63;;;1.10;;
55186;SDS011;55457;52.002;5.464;2023-10-19T14:38:54;2.28;;;1.10;;
55186;SDS011;55457;52.002;5.464;2023-10-19T14:41:20;3.53;;;1.23;;
55186;SDS011;55457;52.002;5.464;2023-10-19T14:43:45;2.65;;;1.63;;
55186;SDS011;55457;52.002;5.464;2023-10-19T14:46:10;4.28;;;0.93;;
55186;SDS011;55457;52.002;5.464;2023-10-19T14:48:36;6.97;;;1.13;;
55186;SDS011;55457;52.002;5.464;2023-10-19T14:51:02;4.10;;;1.77;;
55186;SDS011;55457;52.002;5.464;2023-10-19T14:53:27;3.17;;;1.13;;
55186;SDS011;55457;52.002;5.464;2023-10-19T14:55:56;3.80;;;1.13;;
55186;SDS011;55457;52.002;5.464;2023-10-19T14:58:24;2.80;;;0.73;;
55186;SDS011;55457;52.002;5.464;2023-10-19T15:00:54;2.75;;;0.70;;
55186;SDS011;55457;52.002;5.464;2023-10-19T15:03:20;2.58;;;1.15;;
55186;SDS011;55457;52.002;5.464;2023-10-19T15:05:49;1.92;;;1.10;;
55186;SDS011;55457;52.002;5.464;2023-10-19T15:08:20;1.35;;;0.75;;